Time;durP1;ratioP1;P1;durP2;ratioP2;P2;SDS_P1;SDS_P2;PMS_P1;PMS_P2;Temp;Humidity;BMP_temperature;BMP_pressure;BME280_temperature;BME280_humidity;BME280_pressure;Samples;Min_cycle;Max_cycle;Signal;HPM_P1;HPM_P2
2023/02/28 00:04:09;;;;;;;9.93;4.88;;;;;;;-0.03;60.26;101902.06;10171527;29;20357;-74
2023/02/28 00:09:13;;;;;;;9.38;4.85;;;;;;;-0.15;60.43;101911.91;10185955;29;20082;-78
2023/02/28 00:14:15;;;;;;;8.98;5.13;;;;;;;0.00;60.92;101902.94;10170889;29;20044;-77
2023/02/28 00:19:18;;;;;;;6.35;4.57;;;;;;;0.15;60.88;101907.13;10170890;29;20433;-76
2023/02/28 00:24:22;;;;;;;6.88;4.72;;;;;;;0.10;60.72;101896.59;10171157;29;20052;-75
2023/02/28 00:29:25;;;;;;;9.30;5.22;;;;;;;0.04;60.47;101904.63;10170489;29;20432;-76
2023/02/28 00:34:28;;;;;;;8.82;5.55;;;;;;;-0.12;61.04;101913.63;10170788;29;20092;-77
2023/02/28 00:39:35;;;;;;;14.00;6.30;;;;;;;-0.21;61.42;101911.97;10170496;29;20067;-76
2023/02/28 00:44:38;;;;;;;12.10;6.60;;;;;;;-0.16;61.55;101915.44;10169185;29;20586;-76
2023/02/28 00:49:40;;;;;;;12.02;6.63;;;;;;;-0.19;61.84;101915.50;10173603;29;20075;-77
2023/02/28 00:54:46;;;;;;;10.30;6.35;;;;;;;-0.19;62.35;101917.22;10179395;29;20036;-77
2023/02/28 00:59:50;;;;;;;12.73;6.57;;;;;;;-0.20;62.29;101913.72;10187076;29;20063;-76
2023/02/28 01:04:53;;;;;;;13.73;7.00;;;;;;;-0.17;62.98;101923.38;10212501;29;20089;-78
2023/02/28 01:09:57;;;;;;;13.32;7.60;;;;;;;-0.11;62.65;101923.28;10215067;29;20040;-75
2023/02/28 01:15:00;;;;;;;12.20;7.43;;;;;;;-0.19;62.51;101922.50;10188022;29;20040;-74
2023/02/28 01:20:04;;;;;;;16.35;7.70;;;;;;;-0.29;62.90;101919.13;10180357;29;20052;-75
2023/02/28 01:25:09;;;;;;;15.27;8.35;;;;;;;-0.44;63.21;101919.28;10183770;29;20052;-75
2023/02/28 01:30:13;;;;;;;12.02;7.47;;;;;;;-0.57;63.31;101914.16;10177091;29;20530;-76
2023/02/28 01:35:15;;;;;;;12.18;7.68;;;;;;;-0.57;63.67;101914.16;10176083;29;20040;-76
2023/02/28 01:40:20;;;;;;;13.07;7.28;;;;;;;-0.59;63.59;101921.19;10176936;29;20041;-77
2023/02/28 01:45:25;;;;;;;12.15;7.47;;;;;;;-0.72;63.50;101917.78;10176955;29;20075;-76
2023/02/28 01:50:32;;;;;;;17.60;8.50;;;;;;;-0.76;64.10;101916.09;10174906;29;20135;-76
2023/02/28 01:55:37;;;;;;;12.98;7.75;;;;;;;-0.76;64.04;101917.88;10176274;29;20068;-75
2023/02/28 02:00:42;;;;;;;13.88;8.65;;;;;;;-0.75;64.23;101914.31;10173434;29;20497;-76
2023/02/28 02:05:47;;;;;;;15.43;7.90;;;;;;;-0.74;64.01;101916.06;10175926;29;20036;-78
2023/02/28 02:10:54;;;;;;;13.73;7.93;;;;;;;-0.76;63.84;101917.88;10174624;29;20052;-76
2023/02/28 02:16:04;;;;;;;12.10;7.43;;;;;;;-0.74;63.91;101914.31;10190047;29;20052;-77
2023/02/28 02:21:29;;;;;;;13.77;7.45;;;;;;;-0.59;63.84;101915.06;10175033;29;20068;-76
2023/02/28 02:26:52;;;;;;;11.18;6.70;;;;;;;-0.55;63.73;101912.38;10173861;29;20044;-76
2023/02/28 02:32:18;;;;;;;14.60;7.82;;;;;;;-0.66;62.96;101908.94;10166518;29;20491;-76
2023/02/28 02:37:31;;;;;;;14.02;6.45;;;;;;;-0.72;63.02;101903.72;10173103;29;20452;-75
2023/02/28 02:42:42;;;;;;;15.68;6.88;;;;;;;-0.84;63.22;101898.59;10174501;29;20052;-75
2023/02/28 02:47:46;;;;;;;13.48;7.28;;;;;;;-1.00;63.61;101911.91;10172775;29;20047;-75
2023/02/28 02:52:55;;;;;;;12.52;7.38;;;;;;;-1.15;64.39;101913.78;10174035;29;20040;-76
2023/02/28 02:58:03;;;;;;;13.25;7.32;;;;;;;-1.31;65.16;101915.69;10188188;29;20076;-75
2023/02/28 03:03:07;;;;;;;10.20;6.78;;;;;;;-1.44;65.92;101921.03;10172690;29;20040;-76
2023/02/28 03:08:12;;;;;;;9.30;6.72;;;;;;;-1.42;65.55;101923.69;10173614;29;21247;-75
2023/02/28 03:13:36;;;;;;;10.45;6.80;;;;;;;-1.53;66.02;101928.16;10174049;29;20072;-76
2023/02/28 03:18:50;;;;;;;12.68;6.97;;;;;;;-1.55;66.85;101919.38;10171985;29;20040;-75
2023/02/28 03:24:01;;;;;;;14.20;7.25;;;;;;;-1.57;67.09;101915.84;10164073;29;20044;-77
2023/02/28 03:29:12;;;;;;;13.27;7.03;;;;;;;-1.49;67.17;101922.81;10172908;29;20088;-75
2023/02/28 03:34:21;;;;;;;11.27;6.63;;;;;;;-1.48;67.37;101913.16;10167629;29;20551;-79
2023/02/28 03:39:29;;;;;;;13.55;7.07;;;;;;;-1.50;67.00;101914.94;10173664;29;20559;-76
2023/02/28 03:44:37;;;;;;;17.10;8.13;;;;;;;-1.43;67.02;101912.22;10172419;29;20048;-76
2023/02/28 03:49:45;;;;;;;12.32;6.90;;;;;;;-1.45;66.82;101911.38;10171763;29;20527;-76
2023/02/28 03:54:55;;;;;;;11.35;7.03;;;;;;;-1.49;66.16;101904.38;10171856;29;20071;-75
2023/02/28 04:00:04;;;;;;;12.25;7.72;;;;;;;-1.61;66.55;101912.38;10171351;29;20469;-76
2023/02/28 04:05:14;;;;;;;14.45;7.07;;;;;;;-1.82;66.77;101916.00;10171376;29;20119;-77
2023/02/28 04:10:18;;;;;;;12.00;7.15;;;;;;;-1.82;67.00;101918.63;10170852;29;20499;-74
2023/02/28 04:15:22;;;;;;;13.05;7.28;;;;;;;-1.85;66.86;101914.25;10169695;29;20452;-75
2023/02/28 04:20:25;;;;;;;17.73;8.13;;;;;;;-1.87;67.12;101909.88;10169571;29;20048;-75
2023/02/28 04:25:29;;;;;;;11.43;7.38;;;;;;;-1.98;67.40;101909.03;10168632;29;20071;-78
2023/02/28 04:30:32;;;;;;;12.85;7.00;;;;;;;-2.32;68.20;101912.69;10186050;23;20515;-78
2023/02/28 04:35:35;;;;;;;14.20;7.72;;;;;;;-2.39;68.86;101917.97;10165117;29;20070;-79
2023/02/28 04:40:39;;;;;;;11.25;6.03;;;;;;;-2.45;69.07;101907.47;10169842;29;20051;-78
2023/02/28 04:45:42;;;;;;;13.07;6.43;;;;;;;-2.49;69.32;101921.53;10168020;29;20166;-78
2023/02/28 04:50:45;;;;;;;13.45;6.68;;;;;;;-2.69;69.43;101917.16;10161644;29;20139;-79
2023/02/28 04:55:49;;;;;;;11.68;7.13;;;;;;;-2.77;70.45;101913.66;10170322;29;20060;-78
2023/02/28 05:00:53;;;;;;;15.40;7.88;;;;;;;-2.68;70.81;101918.06;10162327;29;20044;-78
2023/02/28 05:05:56;;;;;;;11.15;7.80;;;;;;;-2.59;70.80;101918.03;10170417;29;20044;-79
2023/02/28 05:11:01;;;;;;;13.88;7.82;;;;;;;-2.48;70.37;101918.88;10160971;29;20040;-77
2023/02/28 05:16:04;;;;;;;12.50;7.90;;;;;;;-2.47;69.98;101925.00;10161931;29;20352;-80
2023/02/28 05:21:24;;;;;;;14.23;7.00;;;;;;;-2.50;70.07;101931.16;10169236;29;20048;-79
2023/02/28 05:26:28;;;;;;;13.65;7.95;;;;;;;-2.58;70.13;101931.19;10164712;29;20503;-79
2023/02/28 05:31:32;;;;;;;14.02;7.80;;;;;;;-2.44;69.98;101935.53;10172174;29;20051;-80
2023/02/28 05:36:38;;;;;;;13.98;7.90;;;;;;;-2.36;69.48;101931.13;10174378;29;20080;-78
2023/02/28 05:41:44;;;;;;;14.10;8.25;;;;;;;-2.43;69.74;101938.16;10178862;29;20036;-81
2023/02/28 05:46:46;;;;;;;15.77;7.70;;;;;;;-2.52;69.45;101936.44;10174939;29;20067;-79
2023/02/28 05:51:49;;;;;;;12.90;7.22;;;;;;;-2.53;69.73;101937.31;10175337;29;20078;-79
2023/02/28 05:56:53;;;;;;;11.23;7.35;;;;;;;-2.57;69.74;101938.19;10178732;29;20384;-79
2023/02/28 06:01:56;;;;;;;14.20;7.72;;;;;;;-2.59;70.10;101942.59;10172729;29;20079;-78
2023/02/28 06:06:59;;;;;;;11.05;7.82;;;;;;;-2.60;69.87;101940.84;10185606;29;20044;-77
2023/02/28 06:12:06;;;;;;;15.15;8.10;;;;;;;-2.67;69.83;101939.09;10169708;29;20092;-77
2023/02/28 06:17:10;;;;;;;12.68;7.75;;;;;;;-2.91;70.65;101934.72;10171617;29;20085;-79
2023/02/28 06:22:13;;;;;;;16.58;7.68;;;;;;;-3.02;70.68;101932.09;10176414;29;20044;-78
2023/02/28 06:27:17;;;;;;;15.07;8.65;;;;;;;-2.97;70.78;101937.34;10166830;29;20071;-80
2023/02/28 06:32:20;;;;;;;14.25;8.90;;;;;;;-2.82;70.80;101942.63;10177082;29;20084;-80
2023/02/28 06:37:25;;;;;;;16.73;9.02;;;;;;;-2.60;70.76;101948.75;10169222;29;20048;-78
2023/02/28 06:42:30;;;;;;;17.92;9.07;;;;;;;-2.20;70.76;101948.63;10177698;29;20048;-77
2023/02/28 06:47:33;;;;;;;13.60;8.50;;;;;;;-1.66;69.84;101954.56;10171121;29;20043;-80
2023/02/28 06:52:37;;;;;;;15.95;8.35;;;;;;;-1.22;68.28;101961.31;10174951;29;20494;-78
2023/02/28 06:57:41;;;;;;;15.13;8.77;;;;;;;-0.99;66.81;101970.81;10175472;29;20407;-79
2023/02/28 07:02:44;;;;;;;12.55;8.15;;;;;;;-0.64;65.70;101973.16;10169115;29;20056;-80
2023/02/28 07:07:47;;;;;;;13.32;7.97;;;;;;;-0.31;63.77;101979.88;10201938;29;20032;-76
2023/02/28 07:12:51;;;;;;;13.75;8.35;;;;;;;-0.12;62.41;101987.59;10187389;29;20055;-80
2023/02/28 07:17:54;;;;;;;15.77;8.75;;;;;;;0.25;61.80;101992.44;10175987;29;20056;-78
2023/02/28 07:22:56;;;;;;;15.10;9.02;;;;;;;0.59;61.26;101990.25;10130516;29;20056;-77
2023/02/28 07:28:01;;;;;;;13.57;8.52;;;;;;;1.00;60.05;101991.41;10163404;29;20115;-77
2023/02/28 07:33:04;;;;;;;16.02;9.32;;;;;;;1.19;59.22;102003.44;10171711;29;20054;-78
2023/02/28 07:38:08;;;;;;;14.13;9.02;;;;;;;1.42;58.49;102000.41;10122996;29;20751;-78
2023/02/28 07:43:12;;;;;;;22.50;9.93;;;;;;;1.44;57.63;102005.69;10132446;29;20054;-79
2023/02/28 07:48:15;;;;;;;22.58;11.50;;;;;;;0.87;58.90;102006.59;10133763;29;20080;-79
2023/02/28 07:53:18;;;;;;;17.73;10.02;;;;;;;1.37;59.14;102006.69;10153632;29;20060;-78
2023/02/28 07:58:23;;;;;;;14.73;8.73;;;;;;;1.72;57.10;101992.81;10134905;29;20059;-78
2023/02/28 08:03:26;;;;;;;13.40;7.95;;;;;;;2.24;55.58;101991.81;10130285;29;20572;-77
2023/02/28 08:08:31;;;;;;;13.27;7.80;;;;;;;2.83;54.12;101994.97;10132819;29;20050;-79
2023/02/28 08:13:35;;;;;;;14.35;8.23;;;;;;;2.94;53.71;101999.16;10130118;29;20134;-79
2023/02/28 08:18:38;;;;;;;13.95;8.18;;;;;;;2.99;54.04;101997.25;10131077;29;20051;-77
2023/02/28 08:23:40;;;;;;;14.85;7.70;;;;;;;3.22;52.39;101986.94;10146687;29;20060;-79
2023/02/28 08:28:45;;;;;;;16.30;7.65;;;;;;;2.10;54.73;101986.78;10159850;29;20059;-79
2023/02/28 08:33:50;;;;;;;15.05;7.55;;;;;;;2.47;54.60;101993.09;10143700;29;20138;-79
2023/02/28 08:38:53;;;;;;;17.85;7.65;;;;;;;2.22;56.13;101987.44;10146454;29;20147;-78
2023/02/28 08:43:57;;;;;;;13.40;7.50;;;;;;;2.79;55.78;101995.06;10151885;29;20050;-79
2023/02/28 08:49:01;;;;;;;11.15;8.43;;;;;;;3.43;53.63;101982.91;10155712;29;20051;-80
2023/02/28 08:54:04;;;;;;;15.15;8.02;;;;;;;3.56;53.14;101995.84;10156489;29;20055;-79
2023/02/28 08:59:10;;;;;;;10.43;8.13;;;;;;;3.52;53.47;101999.50;10152476;29;20142;-77
2023/02/28 09:04:13;;;;;;;13.25;8.63;;;;;;;3.59;53.74;101993.09;10139184;29;20062;-78
2023/02/28 09:09:21;;;;;;;12.15;7.50;;;;;;;4.29;51.47;101995.63;10133125;29;20052;-79
2023/02/28 09:14:25;;;;;;;11.55;7.10;;;;;;;3.87;52.37;101987.94;10136822;29;20191;-79
2023/02/28 09:19:28;;;;;;;12.38;6.85;;;;;;;5.34;48.38;101990.56;10134628;29;20518;-78
2023/02/28 09:24:31;;;;;;;14.05;5.32;;;;;;;6.37;44.11;101974.44;10140297;29;20104;-78
2023/02/28 09:29:36;;;;;;;12.00;5.85;;;;;;;7.18;43.84;101979.22;10134273;29;21341;-78
2023/02/28 09:34:38;;;;;;;9.98;6.43;;;;;;;6.96;42.50;101981.91;10138657;29;20415;-79
2023/02/28 09:39:41;;;;;;;8.75;5.70;;;;;;;5.42;44.07;101989.38;10134594;29;20064;-76
2023/02/28 09:44:48;;;;;;;7.70;4.57;;;;;;;5.55;44.99;101984.53;10149332;29;20048;-79
2023/02/28 09:49:51;;;;;;;6.25;4.47;;;;;;;6.74;42.70;101981.88;10144952;29;20047;-79
2023/02/28 09:54:54;;;;;;;3.72;2.25;;;;;;;7.74;41.11;101980.44;10163034;29;20060;-78
2023/02/28 10:00:16;;;;;;;3.85;1.20;;;;;;;8.05;36.55;101969.22;10148586;29;20147;-73
2023/02/28 10:05:26;;;;;;;2.90;1.10;;;;;;;8.24;36.73;101979.09;10132520;29;20065;-80
2023/02/28 10:10:38;;;;;;;1.65;1.40;;;;;;;7.70;37.05;101987.69;10143268;29;20061;-80
2023/02/28 10:15:43;;;;;;;2.23;1.37;;;;;;;8.01;37.78;101974.78;10136889;29;20048;-80
2023/02/28 10:20:47;;;;;;;2.65;1.45;;;;;;;8.02;37.34;101980.06;10140145;29;20299;-78
2023/02/28 10:25:57;;;;;;;1.65;1.23;;;;;;;8.78;36.21;101972.13;10135392;29;20062;-80
2023/02/28 10:31:01;;;;;;;2.63;1.00;;;;;;;8.88;36.23;101964.50;10129247;29;20059;-79
2023/02/28 10:36:06;;;;;;;9.57;2.22;;;;;;;9.18;35.75;101971.00;10139029;29;20052;-80
2023/02/28 10:41:11;;;;;;;1.98;1.30;;;;;;;9.49;35.07;101966.78;10129839;29;20436;-79
2023/02/28 10:46:25;;;;;;;2.97;1.40;;;;;;;9.66;34.84;101956.03;10135736;29;20058;-80
2023/02/28 10:51:36;;;;;;;3.40;1.08;;;;;;;9.77;34.26;101951.94;10125403;29;20081;-80
2023/02/28 10:56:38;;;;;;;2.55;1.08;;;;;;;7.90;35.82;101956.56;10158592;29;20063;-78
2023/02/28 11:01:45;;;;;;;3.15;1.30;;;;;;;8.17;36.49;101955.28;10154389;29;20059;-79
2023/02/28 11:06:49;;;;;;;2.50;1.27;;;;;;;9.36;35.74;101950.44;10169436;29;20051;-79
2023/02/28 11:11:52;;;;;;;2.75;1.48;;;;;;;10.96;31.85;101939.94;10156094;29;20056;-79
2023/02/28 11:17:03;;;;;;;2.75;1.40;;;;;;;10.31;32.30;101934.69;10142407;29;20057;-78
2023/02/28 11:22:08;;;;;;;3.10;1.17;;;;;;;10.74;31.81;101942.16;10144392;29;20159;-80
2023/02/28 11:27:26;;;;;;;2.38;0.98;;;;;;;10.76;30.44;101943.78;10139556;29;20628;-80
2023/02/28 11:32:32;;;;;;;2.70;1.20;;;;;;;11.31;31.09;101931.66;10144752;29;20076;-80
2023/02/28 11:37:35;;;;;;;8.98;1.65;;;;;;;11.52;30.47;101924.13;10141618;29;20056;-79
2023/02/28 11:42:56;;;;;;;1.75;1.42;;;;;;;11.70;30.60;101922.13;10139987;29;20190;-79
2023/02/28 11:48:09;;;;;;;1.83;1.30;;;;;;;12.06;29.82;101915.41;10142783;29;20056;-80
2023/02/28 11:53:22;;;;;;;3.28;1.30;;;;;;;12.28;29.13;101912.22;10133548;29;20496;-79
2023/02/28 11:58:36;;;;;;;2.08;1.40;;;;;;;12.85;29.08;101914.81;10138419;29;20063;-80
2023/02/28 12:03:53;;;;;;;1.85;1.50;;;;;;;12.04;29.63;101904.75;10135532;29;20583;-79
2023/02/28 12:09:13;;;;;;;1.58;1.10;;;;;;;11.44;30.48;101900.38;10137055;29;20104;-80
2023/02/28 12:14:43;;;;;;;3.47;1.67;;;;;;;12.49;29.75;101885.75;10142311;29;20052;-80
2023/02/28 12:19:55;;;;;;;2.35;1.58;;;;;;;10.80;30.68;101894.25;10123972;29;20056;-80
2023/02/28 12:25:33;;;;;;;3.20;1.70;;;;;;;11.22;31.49;101881.97;10135798;29;20108;-81
2023/02/28 12:30:42;;;;;;;4.65;2.33;;;;;;;13.10;29.50;101875.38;10131985;29;20067;-79
2023/02/28 12:35:51;;;;;;;2.50;1.55;;;;;;;12.26;28.85;101868.31;10140834;29;20052;-79
2023/02/28 12:40:58;;;;;;;2.30;1.60;;;;;;;10.09;31.51;101877.72;10135114;29;20116;-80
2023/02/28 12:46:08;;;;;;;2.72;1.90;;;;;;;10.18;32.79;101869.19;10157483;29;20087;-78
2023/02/28 12:51:14;;;;;;;2.35;1.50;;;;;;;10.63;31.93;101856.75;10172278;29;20072;-79
2023/02/28 12:56:27;;;;;;;2.88;1.90;;;;;;;10.81;30.96;101862.88;10158597;29;20487;-78
2023/02/28 13:02:00;;;;;;;2.92;2.08;;;;;;;11.43;30.75;101846.63;10165394;29;20088;-77
2023/02/28 13:07:24;;;;;;;4.20;1.70;;;;;;;12.81;29.81;101844.03;10134212;29;20419;-79
2023/02/28 13:12:28;;;;;;;2.63;1.90;;;;;;;15.23;26.97;101831.00;10147482;29;20658;-80
2023/02/28 13:17:31;;;;;;;2.85;1.77;;;;;;;14.94;25.84;101829.69;10138588;29;20044;-79
2023/02/28 13:22:41;;;;;;;2.00;1.80;;;;;;;12.30;28.75;101826.78;10153867;29;20099;-79
2023/02/28 13:27:45;;;;;;;1.83;1.55;;;;;;;14.16;27.21;101841.81;10161959;29;20047;-80
2023/02/28 13:33:27;;;;;;;5.10;2.10;;;;;;;14.95;26.39;101823.31;10176239;29;20131;-79
2023/02/28 13:38:37;;;;;;;3.70;2.00;;;;;;;14.53;26.98;101828.28;10174153;29;20137;-80
2023/02/28 13:44:02;;;;;;;2.33;1.83;;;;;;;13.19;28.34;101826.19;10175690;29;20055;-79
2023/02/28 13:49:20;;;;;;;4.40;1.90;;;;;;;12.75;29.03;101822.88;10158817;29;20047;-81
2023/02/28 13:54:41;;;;;;;3.13;2.20;;;;;;;12.78;29.60;101817.28;10154039;29;20116;-81
2023/02/28 13:59:52;;;;;;;2.35;1.90;;;;;;;12.52;29.95;101820.84;10162866;29;20094;-77
2023/02/28 14:05:01;;;;;;;3.67;1.80;;;;;;;11.90;30.28;101818.56;10141243;29;20056;-78
2023/02/28 14:10:08;;;;;;;3.72;1.80;;;;;;;11.60;30.71;101807.91;10141381;29;20048;-77
2023/02/28 14:15:42;;;;;;;2.90;2.20;;;;;;;11.34;31.00;101806.84;10140320;29;20048;-81
2023/02/28 14:20:47;;;;;;;4.38;1.90;;;;;;;11.86;30.89;101804.44;10124002;29;20150;-79
2023/02/28 14:26:04;;;;;;;3.17;2.70;;;;;;;12.56;30.19;101798.09;10147139;29;20048;-79
2023/02/28 14:31:12;;;;;;;2.90;1.90;;;;;;;11.88;31.23;101789.06;10140021;29;20109;-80
2023/02/28 14:36:21;;;;;;;3.70;2.13;;;;;;;12.09;31.33;101789.47;10140281;29;20119;-77
2023/02/28 14:41:31;;;;;;;3.65;2.10;;;;;;;11.93;31.27;101784.25;10140529;29;20608;-80
2023/02/28 14:46:38;;;;;;;4.00;2.13;;;;;;;11.75;31.46;101785.41;10132076;29;20055;-80
2023/02/28 14:51:41;;;;;;;3.13;2.20;;;;;;;10.91;32.74;101791.47;10141591;29;20512;-79
2023/02/28 14:56:50;;;;;;;4.07;2.50;;;;;;;11.56;32.35;101785.72;10139737;29;20055;-80
2023/02/28 15:02:08;;;;;;;3.97;2.78;;;;;;;10.38;33.49;101801.75;10147322;29;20681;-79
2023/02/28 15:07:12;;;;;;;3.85;2.33;;;;;;;10.23;34.16;101794.59;10168712;28;20600;-80
2023/02/28 15:12:16;;;;;;;5.68;2.42;;;;;;;10.17;34.06;101798.50;10166254;29;20048;-79
2023/02/28 15:17:25;;;;;;;3.53;2.55;;;;;;;10.25;33.64;101805.22;10161614;29;20063;-79
2023/02/28 15:22:32;;;;;;;4.38;2.80;;;;;;;10.23;34.12;101799.06;10167240;29;20499;-80
2023/02/28 15:27:43;;;;;;;4.57;2.72;;;;;;;9.49;34.88;101800.47;10155224;29;20056;-80
2023/02/28 15:32:46;;;;;;;3.70;2.67;;;;;;;9.53;34.50;101806.53;10164877;29;21297;-78
2023/02/28 15:37:53;;;;;;;5.10;2.53;;;;;;;9.18;34.41;101799.41;10139917;29;20198;-79
2023/02/28 15:43:18;;;;;;;4.43;2.97;;;;;;;8.97;34.72;101801.41;10138497;29;20052;-79
2023/02/28 15:48:24;;;;;;;4.38;2.38;;;;;;;8.78;35.36;101816.72;10138163;29;20143;-80
2023/02/28 15:53:32;;;;;;;4.47;3.10;;;;;;;8.26;36.05;101806.75;10143650;29;20110;-78
2023/02/28 15:58:37;;;;;;;4.25;2.63;;;;;;;7.69;36.98;101803.22;10135455;29;20135;-79
2023/02/28 16:03:44;;;;;;;4.43;3.10;;;;;;;7.05;38.64;101815.88;10141274;29;20143;-77
2023/02/28 16:08:48;;;;;;;5.15;3.15;;;;;;;6.90;39.20;101811.19;10127411;29;20133;-78
2023/02/28 16:13:53;;;;;;;5.13;2.58;;;;;;;6.94;39.06;101809.25;10152893;29;20223;-77
2023/02/28 16:18:56;;;;;;;3.45;2.45;;;;;;;7.14;39.09;101809.25;10157005;29;20044;-78
2023/02/28 16:23:59;;;;;;;5.03;2.95;;;;;;;6.96;39.37;101796.69;10151151;29;20058;-79
2023/02/28 16:29:04;;;;;;;6.03;3.15;;;;;;;6.81;39.63;101809.75;10152292;29;20055;-78
2023/02/28 16:34:07;;;;;;;4.88;2.72;;;;;;;6.53;39.90;101814.53;10158210;29;20044;-79
2023/02/28 16:39:09;;;;;;;4.65;3.10;;;;;;;6.31;40.47;101818.06;10147309;29;20048;-80
2023/02/28 16:44:21;;;;;;;4.80;3.15;;;;;;;6.02;41.05;101829.03;10127694;29;20052;-80
2023/02/28 16:49:24;;;;;;;4.80;3.67;;;;;;;5.73;41.42;101825.66;10130385;29;20048;-79
2023/02/28 16:54:27;;;;;;;4.03;3.10;;;;;;;5.31;42.44;101822.81;10132184;29;20044;-78
2023/02/28 16:59:32;;;;;;;5.38;3.40;;;;;;;4.88;43.27;101825.13;10143163;29;20071;-78
2023/02/28 17:04:34;;;;;;;5.88;3.70;;;;;;;4.63;44.01;101830.41;10153300;29;20051;-79
2023/02/28 17:09:37;;;;;;;6.47;4.25;;;;;;;4.51;44.50;101837.03;10156047;29;20048;-77
2023/02/28 17:14:46;;;;;;;5.45;4.43;;;;;;;4.37;44.78;101829.50;10151989;29;20063;-78
2023/02/28 17:19:49;;;;;;;8.60;4.43;;;;;;;4.18;45.26;101839.84;10150776;29;20455;-78
2023/02/28 17:24:52;;;;;;;8.73;4.68;;;;;;;4.05;45.63;101838.47;10156954;29;20088;-77
2023/02/28 17:29:56;;;;;;;5.47;4.13;;;;;;;3.92;45.79;101840.66;10156695;29;20050;-78
2023/02/28 17:34:59;;;;;;;5.47;4.10;;;;;;;3.88;46.34;101844.31;10133991;29;20166;-79
2023/02/28 17:40:02;;;;;;;5.45;4.32;;;;;;;3.77;46.49;101848.22;10142234;29;20135;-77
2023/02/28 17:45:07;;;;;;;6.40;3.78;;;;;;;3.68;46.64;101849.34;10144053;29;20616;-78
2023/02/28 17:50:15;;;;;;;7.15;4.70;;;;;;;3.66;46.70;101853.84;10157424;29;20067;-77
2023/02/28 17:55:18;;;;;;;10.10;4.47;;;;;;;3.59;46.94;101862.88;10163985;29;20102;-77
2023/02/28 18:00:24;;;;;;;10.38;4.55;;;;;;;3.53;47.22;101873.69;10162167;29;20147;-78
2023/02/28 18:05:27;;;;;;;14.52;4.82;;;;;;;3.48;47.36;101879.13;10176494;29;20516;-78
2023/02/28 18:10:33;;;;;;;10.45;5.40;;;;;;;3.43;47.49;101879.28;10187623;29;20056;-77
2023/02/28 18:15:37;;;;;;;12.07;5.88;;;;;;;3.25;47.74;101877.97;10161212;29;20058;-79
2023/02/28 18:20:42;;;;;;;12.50;6.80;;;;;;;3.15;48.07;101884.44;10161085;29;21193;-78
2023/02/28 18:25:45;;;;;;;18.15;8.68;;;;;;;3.11;48.36;101879.25;10166106;29;20665;-78
2023/02/28 18:30:50;;;;;;;22.58;10.85;;;;;;;3.00;48.44;101883.06;10162175;29;20150;-79
2023/02/28 18:35:56;;;;;;;22.02;12.20;;;;;;;2.86;48.74;101879.88;10165886;29;20051;-77
2023/02/28 18:41:01;;;;;;;20.00;9.07;;;;;;;2.77;48.95;101875.69;10154093;28;20056;-77
2023/02/28 18:46:06;;;;;;;16.42;9.68;;;;;;;2.74;49.04;101875.78;10165603;29;20048;-77
2023/02/28 18:51:11;;;;;;;19.00;12.00;;;;;;;2.65;49.19;101875.97;10163575;29;20100;-78
2023/02/28 18:56:16;;;;;;;23.05;13.25;;;;;;;2.59;49.67;101874.34;10158442;29;20059;-78
2023/02/28 19:01:21;;;;;;;21.88;11.13;;;;;;;2.56;49.85;101882.38;10160912;29;20074;-79
2023/02/28 19:06:24;;;;;;;18.25;9.52;;;;;;;2.45;50.03;101878.22;10159742;29;20048;-78
2023/02/28 19:11:28;;;;;;;15.20;9.10;;;;;;;2.31;50.17;101868.78;10159197;29;20067;-78
2023/02/28 19:16:32;;;;;;;17.73;10.10;;;;;;;2.29;50.33;101869.72;10158719;29;20150;-78
2023/02/28 19:21:35;;;;;;;14.65;9.65;;;;;;;2.22;50.33;101871.63;10164844;29;20055;-79
2023/02/28 19:26:38;;;;;;;12.35;8.25;;;;;;;2.22;50.47;101876.94;10161759;29;20059;-77
2023/02/28 19:31:42;;;;;;;12.30;7.65;;;;;;;2.18;50.21;101878.78;10156192;29;20045;-79
2023/02/28 19:36:45;;;;;;;12.55;8.57;;;;;;;2.20;50.32;101878.75;10161940;29;20214;-79
2023/02/28 19:41:48;;;;;;;14.45;8.70;;;;;;;2.14;50.46;101885.09;10157224;29;20149;-77
2023/02/28 19:46:53;;;;;;;14.23;9.48;;;;;;;2.00;50.78;101881.84;10157776;29;20410;-77
2023/02/28 19:51:56;;;;;;;17.45;9.35;;;;;;;1.91;50.86;101885.56;10155436;29;20052;-79
2023/02/28 19:56:58;;;;;;;14.43;9.48;;;;;;;1.85;51.45;101883.03;10160208;29;20055;-76
2023/02/28 20:02:03;;;;;;;18.05;9.70;;;;;;;1.77;51.52;101876.16;10157753;29;20053;-79
2023/02/28 20:07:06;;;;;;;13.10;8.90;;;;;;;1.68;51.32;101874.56;10137998;29;20096;-79
2023/02/28 20:12:09;;;;;;;18.67;11.18;;;;;;;1.76;51.41;101874.44;10130114;29;20048;-78
2023/02/28 20:17:29;;;;;;;21.95;12.20;;;;;;;1.72;51.76;101870.94;10132286;29;20052;-78
2023/02/28 20:22:32;;;;;;;18.75;12.05;;;;;;;1.66;51.63;101877.25;10134991;29;20048;-78
2023/02/28 20:27:35;;;;;;;17.70;9.50;;;;;;;1.64;52.04;101881.69;10140804;29;20048;-77
2023/02/28 20:32:39;;;;;;;12.05;8.10;;;;;;;1.58;51.65;101888.91;10163053;29;20080;-76
2023/02/28 20:37:42;;;;;;;11.50;8.68;;;;;;;1.43;51.99;101896.25;10137748;29;20209;-78
2023/02/28 20:42:45;;;;;;;17.83;11.10;;;;;;;1.30;52.03;101897.38;10138330;29;20067;-78
2023/02/28 20:47:50;;;;;;;17.77;11.23;;;;;;;1.04;52.57;101898.72;10137067;29;20044;-78
2023/02/28 20:52:53;;;;;;;19.17;11.32;;;;;;;0.89;53.23;101898.97;10139160;29;20108;-77
2023/02/28 20:57:57;;;;;;;17.45;10.02;;;;;;;1.02;53.59;101912.88;10144987;29;20100;-79
2023/02/28 21:03:01;;;;;;;25.63;13.02;;;;;;;1.08;53.40;101903.97;10139344;29;20055;-76
2023/02/28 21:08:04;;;;;;;31.55;16.15;;;;;;;1.09;52.93;101913.63;10145471;29;20063;-77
2023/02/28 21:13:07;;;;;;;37.00;18.17;;;;;;;1.12;52.94;101908.28;10130919;29;20056;-77
2023/02/28 21:18:11;;;;;;;30.58;15.55;;;;;;;1.14;52.76;101911.78;10145180;29;20087;-77
2023/02/28 21:23:14;;;;;;;26.40;14.38;;;;;;;1.04;52.65;101904.00;10162558;29;20056;-79
2023/02/28 21:28:17;;;;;;;23.27;12.57;;;;;;;1.02;52.70;101905.81;10165650;29;20067;-78
2023/02/28 21:33:21;;;;;;;22.83;12.60;;;;;;;1.04;52.87;101914.59;10161822;29;20056;-78
2023/02/28 21:38:24;;;;;;;34.17;16.23;;;;;;;1.02;53.09;101905.81;10162714;29;20186;-76
2023/02/28 21:43:27;;;;;;;30.85;14.75;;;;;;;1.06;53.02;101904.84;10152842;29;20498;-77
2023/02/28 21:48:31;;;;;;;34.45;15.63;;;;;;;0.96;52.98;101907.66;10156493;29;20114;-77
2023/02/28 21:53:36;;;;;;;37.78;16.38;;;;;;;0.87;53.34;101906.03;10162539;29;20186;-78
2023/02/28 21:58:39;;;;;;;32.63;15.15;;;;;;;0.70;53.66;101906.31;10157985;29;20404;-76
2023/02/28 22:03:44;;;;;;;26.35;13.52;;;;;;;0.59;53.87;101914.41;10144924;29;20551;-78
2023/02/28 22:08:49;;;;;;;21.60;12.55;;;;;;;0.58;54.31;101914.47;10140319;29;20052;-78
2023/02/28 22:13:54;;;;;;;24.77;11.82;;;;;;;0.62;53.88;101902.91;10198913;23;20398;-77
2023/02/28 22:19:02;;;;;;;21.52;12.02;;;;;;;0.64;53.87;101909.06;10222886;29;20585;-80
2023/02/28 22:24:05;;;;;;;24.10;12.00;;;;;;;0.66;53.75;101906.38;10205297;29;20047;-77
2023/02/28 22:29:08;;;;;;;21.52;11.50;;;;;;;0.74;54.06;101902.75;10209678;29;20052;-78
2023/02/28 22:34:14;;;;;;;22.45;12.05;;;;;;;0.68;53.96;101902.81;10203581;29;20438;-79
2023/02/28 22:39:17;;;;;;;18.13;11.45;;;;;;;0.66;54.27;101906.38;10199868;29;20052;-77
2023/02/28 22:44:21;;;;;;;22.80;12.65;;;;;;;0.48;54.77;101921.63;10183851;29;20468;-78
2023/02/28 22:49:25;;;;;;;24.20;12.18;;;;;;;0.33;55.23;101917.47;10179661;29;20048;-78
2023/02/28 22:54:28;;;;;;;21.33;12.65;;;;;;;0.24;55.91;101914.06;10186649;29;20048;-79
2023/02/28 22:59:30;;;;;;;23.17;12.38;;;;;;;0.26;56.24;101920.19;10182841;29;20055;-78
2023/02/28 23:04:35;;;;;;;25.15;12.85;;;;;;;0.31;56.14;101915.72;10175469;29;20056;-76
2023/02/28 23:09:38;;;;;;;19.92;12.63;;;;;;;0.31;56.14;101908.66;10181672;29;20090;-77
2023/02/28 23:14:41;;;;;;;20.98;12.10;;;;;;;0.31;56.38;101911.31;10160803;29;20468;-76
2023/02/28 23:19:45;;;;;;;20.70;11.10;;;;;;;0.34;56.44;101916.56;10165346;29;20044;-76
2023/02/28 23:24:48;;;;;;;19.80;11.18;;;;;;;0.42;56.17;101900.59;10166484;29;20075;-76